Concord, Louisiana
Current Conditions -  °F | °C
As of 3:15 AM on Wednesday 28 Jan 2015 (Local Time) from KBQP Reporting Station
Haze Haze  
Wind Chill: 40°   Ceiling: 700
Heat Index: 40°   Visibility: 1.2mi
Dew Point: 37°   Wind: 0mph
Humidity: 89%   Direction: NA
Pressure: 30.19"   Gusts: NA
Location:  32.8667°N, 91.4273°W
Report Text: KBQP 280915Z AUTO 00000KT 1 1/4SM BR VV007 05/03 A3019 RMK AO2 T00460029
Loading
Personal Weather Stations






























Interactive Weather Map New forecast layout! Learn more

10-Day Weather Forecast

Advertisements
Track Severe Weather on mobile